createdAt,value
2019-05-05T00:01:55.598Z,6.60
2019-05-05T00:04:34.960Z,6.30
2019-05-05T00:07:04.422Z,5.70
2019-05-05T00:09:34.766Z,8.43
2019-05-05T00:12:16.949Z,5.50
2019-05-05T00:14:59.230Z,5.97
2019-05-05T00:17:29.529Z,8.20
2019-05-05T00:19:58.729Z,5.60
2019-05-05T00:22:27.151Z,7.20
2019-05-05T00:24:55.558Z,6.43
2019-05-05T00:27:25.433Z,6.73
2019-05-05T00:29:54.759Z,5.57
2019-05-05T00:32:24.487Z,5.90
2019-05-05T00:34:55.146Z,7.03
2019-05-05T00:37:25.486Z,8.13
2019-05-05T00:39:54.343Z,6.57
2019-05-05T00:42:24.737Z,6.80
2019-05-05T00:44:54.910Z,6.00
2019-05-05T00:47:25.170Z,10.30
2019-05-05T00:49:56.156Z,5.70
2019-05-05T00:52:24.575Z,6.40
2019-05-05T00:54:55.435Z,6.20
2019-05-05T00:57:24.273Z,8.27
2019-05-05T00:59:54.395Z,5.57
2019-05-05T01:02:27.301Z,6.67
2019-05-05T01:04:57.352Z,11.40
2019-05-05T01:07:25.805Z,7.63
2019-05-05T01:09:54.414Z,6.80
2019-05-05T01:12:24.321Z,6.27
2019-05-05T01:14:55.135Z,5.67
2019-05-05T01:17:25.283Z,5.77
2019-05-05T01:20:01.223Z,6.83
2019-05-05T01:22:25.030Z,5.27
2019-05-05T01:24:55.440Z,12.43
2019-05-05T01:27:25.330Z,5.70
2019-05-05T01:29:54.611Z,7.27
2019-05-05T01:32:27.483Z,5.33
2019-05-05T01:34:55.918Z,5.60
2019-05-05T01:37:37.681Z,8.37
2019-05-05T01:40:21.988Z,6.80
2019-05-05T01:42:50.498Z,9.10
2019-05-05T01:45:18.989Z,5.73
2019-05-05T01:47:47.415Z,7.83
2019-05-05T01:50:20.957Z,10.13
2019-05-05T01:52:45.969Z,5.87
2019-05-05T01:55:14.795Z,5.80
2019-05-05T01:57:45.030Z,8.63
2019-05-05T02:00:14.865Z,10.43
2019-05-05T02:02:44.906Z,6.33
2019-05-05T02:05:14.929Z,7.30
2019-05-05T02:07:44.811Z,8.13
2019-05-05T02:10:15.361Z,12.70
2019-05-05T02:12:44.729Z,6.43
2019-05-05T02:15:14.904Z,7.50
2019-05-05T02:17:44.587Z,5.23
2019-05-05T02:20:31.215Z,8.33
2019-05-05T02:22:58.354Z,9.17
2019-05-05T02:25:26.765Z,5.07
2019-05-05T02:27:55.195Z,6.40
2019-05-05T02:30:26.680Z,9.70
2019-05-05T02:32:56.869Z,7.90
2019-05-05T02:35:25.851Z,7.03
2019-05-05T02:37:55.837Z,8.23
2019-05-05T02:40:24.702Z,8.77
2019-05-05T02:42:54.915Z,5.20
2019-05-05T02:45:35.072Z,9.77
2019-05-05T02:48:05.868Z,10.07
2019-05-05T02:50:59.996Z,7.77
2019-05-05T02:53:26.235Z,6.60
2019-05-05T02:55:58.493Z,6.90
2019-05-05T02:58:28.437Z,5.70
2019-05-05T03:01:15.008Z,7.03
2019-05-05T03:03:43.886Z,4.47
2019-05-05T03:06:14.355Z,7.50
2019-05-05T03:08:44.082Z,6.50
2019-05-05T03:11:15.534Z,8.27
2019-05-05T03:13:45.523Z,5.00
2019-05-05T03:16:23.713Z,6.37
2019-05-05T03:18:52.128Z,7.23
2019-05-05T03:21:21.695Z,5.27
2019-05-05T03:23:50.483Z,7.23
2019-05-05T03:26:19.954Z,5.67
2019-05-05T03:28:59.737Z,5.67
2019-05-05T03:31:28.735Z,8.60
2019-05-05T03:33:57.211Z,8.03
2019-05-05T03:36:27.179Z,5.53
2019-05-05T03:38:56.226Z,5.97
2019-05-05T03:41:27.824Z,5.17
2019-05-05T03:44:15.168Z,8.60
2019-05-05T03:46:43.930Z,8.13
2019-05-05T03:49:14.165Z,6.83
2019-05-05T03:51:43.958Z,5.30
2019-05-05T03:54:14.630Z,5.60
2019-05-05T03:56:44.287Z,5.77
2019-05-05T03:59:14.100Z,10.90
2019-05-05T04:02:01.104Z,9.03
2019-05-05T04:04:33.445Z,7.07
2019-05-05T04:07:01.989Z,6.17
2019-05-05T04:09:30.480Z,9.80
2019-05-05T04:11:58.959Z,6.83
2019-05-05T04:14:27.386Z,5.87
2019-05-05T04:16:59.900Z,5.70
2019-05-05T04:19:38.507Z,6.13
2019-05-05T04:22:06.930Z,4.47
2019-05-05T04:24:35.353Z,9.23
2019-05-05T04:27:04.115Z,7.77
2019-05-05T04:29:34.523Z,6.03
2019-05-05T04:32:04.631Z,5.77
2019-05-05T04:34:34.764Z,8.77
2019-05-05T04:37:04.137Z,5.70
2019-05-05T04:39:34.345Z,6.30
2019-05-05T04:42:04.788Z,10.13
2019-05-05T04:44:34.694Z,4.50
2019-05-05T04:47:05.103Z,5.53
2019-05-05T04:49:44.593Z,5.40
2019-05-05T04:52:14.719Z,14.20
2019-05-05T04:54:50.586Z,4.47
2019-05-05T04:57:19.030Z,5.97
2019-05-05T04:59:49.100Z,6.50
2019-05-05T05:02:19.184Z,6.80
2019-05-05T05:04:53.563Z,5.27
2019-05-05T05:07:24.056Z,3.80
2019-05-05T05:09:54.013Z,3.93
2019-05-05T05:12:23.692Z,4.83
2019-05-05T05:14:54.486Z,5.73
2019-05-05T05:17:24.911Z,7.77
2019-05-05T05:19:54.264Z,4.77
2019-05-05T05:22:24.313Z,6.40
2019-05-05T05:24:54.220Z,4.03
2019-05-05T05:27:24.489Z,6.77
2019-05-05T05:29:54.365Z,6.90
2019-05-05T05:32:24.676Z,4.27
2019-05-05T05:34:54.319Z,4.60
2019-05-05T05:37:24.009Z,5.10
2019-05-05T05:40:03.919Z,3.80
2019-05-05T05:42:33.570Z,5.00
2019-05-05T05:45:20.219Z,3.90
2019-05-05T05:47:59.274Z,8.67
2019-05-05T05:50:33.805Z,6.00
2019-05-05T05:53:01.877Z,9.07
2019-05-05T05:55:30.298Z,5.67
2019-05-05T05:57:58.720Z,5.07
2019-05-05T06:00:27.133Z,8.67
2019-05-05T06:02:55.556Z,5.37
2019-05-05T06:05:23.994Z,8.57
2019-05-05T06:07:54.282Z,5.30
2019-05-05T06:10:26.613Z,6.87
2019-05-05T06:12:54.627Z,5.37
2019-05-05T06:15:24.454Z,5.07
2019-05-05T06:17:54.019Z,5.10
2019-05-05T06:20:23.897Z,3.60
2019-05-05T06:22:53.600Z,7.53
2019-05-05T06:25:26.297Z,4.07
2019-05-05T06:27:53.997Z,6.17
2019-05-05T06:30:24.351Z,4.93
2019-05-05T06:32:54.445Z,5.53
2019-05-05T06:35:24.455Z,7.93
2019-05-05T06:37:54.268Z,5.17
2019-05-05T06:40:27.877Z,6.00
2019-05-05T06:43:04.470Z,4.93
2019-05-05T06:45:44.393Z,4.20
2019-05-05T06:48:13.582Z,4.63
2019-05-05T06:50:43.810Z,2.43
2019-05-05T06:53:13.568Z,6.23
2019-05-05T06:55:44.292Z,10.93
2019-05-05T06:58:13.691Z,3.57
2019-05-05T07:00:44.139Z,7.20
2019-05-05T07:03:13.935Z,6.67
2019-05-05T07:05:43.814Z,3.77
2019-05-05T07:08:13.781Z,4.00
2019-05-05T07:10:44.411Z,5.33
2019-05-05T07:13:13.976Z,5.13
2019-05-05T07:15:43.742Z,4.23
2019-05-05T07:18:14.222Z,5.10
2019-05-05T07:20:44.031Z,8.23
2019-05-05T07:23:14.532Z,9.27
2019-05-05T07:25:45.789Z,7.07
2019-05-05T07:28:14.671Z,7.37
2019-05-05T07:30:44.256Z,3.20
2019-05-05T07:33:14.745Z,6.37
2019-05-05T07:35:59.558Z,6.43
2019-05-05T07:38:24.494Z,6.73
2019-05-05T07:40:54.542Z,5.83
2019-05-05T07:43:23.990Z,3.90
2019-05-05T07:45:53.996Z,9.63
2019-05-05T07:48:24.288Z,6.53
2019-05-05T07:51:01.471Z,4.80
2019-05-05T07:53:24.442Z,5.73
2019-05-05T07:55:54.170Z,8.73
2019-05-05T07:58:24.256Z,7.17
2019-05-05T08:00:54.089Z,4.00
2019-05-05T08:03:23.617Z,4.67
2019-05-05T08:05:54.391Z,4.33
2019-05-05T08:08:24.312Z,3.43
2019-05-05T08:10:54.198Z,5.23
2019-05-05T08:13:24.316Z,8.17
2019-05-05T08:15:59.774Z,4.70
2019-05-05T08:18:43.846Z,4.70
2019-05-05T08:21:13.610Z,4.37
2019-05-05T08:23:46.411Z,4.30
2019-05-05T08:26:16.465Z,8.13
2019-05-05T08:28:46.533Z,6.30
2019-05-05T08:31:16.596Z,3.00
2019-05-05T08:33:45.033Z,5.53
2019-05-05T08:36:14.683Z,4.57
2019-05-05T08:38:44.241Z,3.33
2019-05-05T08:41:13.866Z,5.27
2019-05-05T08:43:44.057Z,5.67
2019-05-05T08:46:14.330Z,10.70
2019-05-05T08:48:44.738Z,9.53
2019-05-05T08:51:14.087Z,4.90
2019-05-05T08:53:47.998Z,6.13
2019-05-05T08:56:14.590Z,3.37
2019-05-05T08:58:43.846Z,5.47
2019-05-05T09:01:14.740Z,5.20
2019-05-05T09:03:44.311Z,4.50
2019-05-05T09:06:13.772Z,6.93
2019-05-05T09:08:44.204Z,3.13
2019-05-05T09:11:14.042Z,6.03
2019-05-05T09:13:44.673Z,5.53
2019-05-05T09:16:14.429Z,2.47
2019-05-05T09:19:04.156Z,7.57
2019-05-05T09:21:34.561Z,6.37
2019-05-05T09:24:24.856Z,4.03
2019-05-05T09:27:14.180Z,7.40
2019-05-05T09:29:44.120Z,7.17
2019-05-05T09:32:13.916Z,2.70
2019-05-05T09:34:43.590Z,2.47
2019-05-05T09:37:14.369Z,3.13
2019-05-05T09:39:43.677Z,3.63
2019-05-05T09:42:14.483Z,6.57
2019-05-05T09:44:43.806Z,3.77
2019-05-05T09:47:13.652Z,6.83
2019-05-05T09:49:44.594Z,7.03
2019-05-05T09:52:13.976Z,5.43
2019-05-05T09:54:43.889Z,5.50
2019-05-05T09:57:14.516Z,5.40
2019-05-05T09:59:44.081Z,4.13
2019-05-05T10:02:13.268Z,3.13
2019-05-05T10:04:43.925Z,2.67
2019-05-05T10:07:13.763Z,3.97
2019-05-05T10:09:43.809Z,3.47
2019-05-05T10:12:12.211Z,3.33
2019-05-05T10:14:40.641Z,4.97
2019-05-05T10:17:09.156Z,3.50
2019-05-05T10:19:37.545Z,3.33
2019-05-05T10:22:05.984Z,4.67
2019-05-05T10:24:38.935Z,2.50
2019-05-05T10:27:07.419Z,4.33
2019-05-05T10:29:35.864Z,6.50
2019-05-05T10:32:04.741Z,3.23
2019-05-05T10:34:33.594Z,4.33
2019-05-05T10:37:04.050Z,3.90
2019-05-05T10:39:44.032Z,3.43
2019-05-05T10:42:14.503Z,3.47
2019-05-05T10:44:44.578Z,4.13
2019-05-05T10:47:13.764Z,3.43
2019-05-05T10:49:44.123Z,4.27
2019-05-05T10:52:14.257Z,2.23
2019-05-05T10:54:44.870Z,4.57
2019-05-05T10:57:14.532Z,3.93
2019-05-05T10:59:43.593Z,3.30
2019-05-05T11:02:14.032Z,3.17
2019-05-05T11:04:44.216Z,6.63
2019-05-05T11:07:14.532Z,4.47
2019-05-05T11:09:44.382Z,7.10
2019-05-05T11:12:14.309Z,4.30
2019-05-05T11:14:44.283Z,5.03
2019-05-05T11:17:14.402Z,3.83
2019-05-05T11:19:44.209Z,3.53
2019-05-05T11:22:14.650Z,4.47
2019-05-05T11:24:55.144Z,3.17
2019-05-05T11:27:13.219Z,4.63
2019-05-05T11:29:57.939Z,2.20
2019-05-05T11:32:27.989Z,4.50
2019-05-05T11:34:56.427Z,4.13
2019-05-05T11:37:25.204Z,5.40
2019-05-05T11:39:53.712Z,4.87
2019-05-05T11:42:23.890Z,3.10
2019-05-05T11:44:52.315Z,3.00
2019-05-05T11:47:20.830Z,4.00
2019-05-05T11:49:49.257Z,4.63
2019-05-05T11:52:17.687Z,2.57
2019-05-05T11:54:46.142Z,2.87
2019-05-05T11:57:14.565Z,2.20
2019-05-05T11:59:43.062Z,2.50
2019-05-05T12:02:11.477Z,2.37
2019-05-05T12:04:39.920Z,2.80
2019-05-05T12:07:08.349Z,2.10
2019-05-05T12:09:38.414Z,5.47
2019-05-05T12:12:06.842Z,4.13
2019-05-05T12:14:35.337Z,2.23
2019-05-05T12:17:04.555Z,4.63
2019-05-05T12:19:33.667Z,3.67
2019-05-05T12:22:02.174Z,1.87
2019-05-05T12:24:33.917Z,3.57
2019-05-05T12:27:19.334Z,2.77
2019-05-05T12:29:48.667Z,3.13
2019-05-05T12:32:17.071Z,3.57
2019-05-05T12:34:45.515Z,1.90
2019-05-05T12:37:14.331Z,5.57
2019-05-05T12:39:44.249Z,3.30
2019-05-05T12:42:14.089Z,2.80
2019-05-05T12:44:44.472Z,3.60
2019-05-05T12:47:26.278Z,2.10
2019-05-05T12:49:54.702Z,2.83
2019-05-05T12:52:23.113Z,4.07
2019-05-05T12:54:51.551Z,1.70
2019-05-05T12:57:19.979Z,3.57
2019-05-05T12:59:48.380Z,2.80
2019-05-05T13:02:16.865Z,4.80
2019-05-05T13:04:45.282Z,2.70
2019-05-05T13:07:13.779Z,2.33
2019-05-05T13:09:44.089Z,2.37
2019-05-05T13:12:12.485Z,5.70
2019-05-05T13:14:40.897Z,2.10
2019-05-05T13:17:09.325Z,4.90
2019-05-05T13:19:43.713Z,4.00
2019-05-05T13:22:25.966Z,2.70
2019-05-05T13:24:58.449Z,4.40
2019-05-05T13:27:28.500Z,4.50
2019-05-05T13:29:56.944Z,4.70
2019-05-05T13:32:25.341Z,3.07
2019-05-05T13:34:54.592Z,2.97
2019-05-05T13:37:24.430Z,3.90
2019-05-05T13:39:53.939Z,1.70
2019-05-05T13:42:24.403Z,3.27
2019-05-05T13:44:56.923Z,3.00
2019-05-05T13:47:25.363Z,1.80
2019-05-05T13:49:55.423Z,2.47
2019-05-05T13:52:24.416Z,2.63
2019-05-05T13:54:54.362Z,2.57
2019-05-05T13:57:24.609Z,1.97
2019-05-05T13:59:54.542Z,2.57
2019-05-05T14:02:24.435Z,3.80
2019-05-05T14:04:54.138Z,4.47
2019-05-05T14:07:23.940Z,3.90
2019-05-05T14:09:54.746Z,3.27
2019-05-05T14:12:24.047Z,2.53
2019-05-05T14:14:54.509Z,3.03
2019-05-05T14:17:22.806Z,2.60
2019-05-05T14:20:02.456Z,2.97
2019-05-05T14:22:21.385Z,5.37
2019-05-05T14:24:53.663Z,2.23
2019-05-05T14:27:23.665Z,3.00
2019-05-05T14:29:56.251Z,2.00
2019-05-05T14:32:26.374Z,3.00
2019-05-05T14:34:59.155Z,2.23
2019-05-05T14:37:35.285Z,3.40
2019-05-05T14:40:05.863Z,2.70
2019-05-05T14:42:34.325Z,3.50
2019-05-05T14:45:04.633Z,5.93
2019-05-05T14:47:33.593Z,4.60
2019-05-05T14:50:04.459Z,2.57
2019-05-05T14:52:32.480Z,3.90
2019-05-05T14:55:00.916Z,5.20
2019-05-05T14:57:29.362Z,3.70
2019-05-05T14:59:57.835Z,3.33
2019-05-05T15:02:26.647Z,8.67
2019-05-05T15:04:56.704Z,4.67
2019-05-05T15:07:38.695Z,2.87
2019-05-05T15:10:25.013Z,2.90
2019-05-05T15:12:57.778Z,2.60
2019-05-05T15:15:26.202Z,9.60
2019-05-05T15:17:54.651Z,3.17
2019-05-05T15:20:24.440Z,2.93
2019-05-05T15:22:54.139Z,4.23
2019-05-05T15:25:23.513Z,2.40
2019-05-05T15:27:54.048Z,4.13
2019-05-05T15:30:24.940Z,2.83
2019-05-05T15:32:54.130Z,6.80
2019-05-05T15:35:22.886Z,5.30
2019-05-05T15:37:51.393Z,10.23
2019-05-05T15:40:19.874Z,8.17
2019-05-05T15:42:48.437Z,9.20
2019-05-05T15:45:17.502Z,7.90
2019-05-05T15:47:45.908Z,8.93
2019-05-05T15:50:15.624Z,10.23
2019-05-05T15:52:44.233Z,9.03
2019-05-05T15:55:14.983Z,11.10
2019-05-05T15:57:44.302Z,8.03
2019-05-05T16:00:14.124Z,12.57
2019-05-05T16:02:44.163Z,15.47
2019-05-05T16:05:13.892Z,9.37
2019-05-05T16:07:44.007Z,10.20
2019-05-05T16:10:14.863Z,11.17
2019-05-05T16:12:45.003Z,8.67
2019-05-05T16:15:27.675Z,9.10
2019-05-05T16:18:00.634Z,10.43
2019-05-05T16:20:39.831Z,11.13
2019-05-05T16:23:18.673Z,9.40
2019-05-05T16:25:47.104Z,10.83
2019-05-05T16:28:15.603Z,8.57
2019-05-05T16:30:44.449Z,8.67
2019-05-05T16:33:13.777Z,11.23
2019-05-05T16:35:43.745Z,12.50
2019-05-05T16:38:14.679Z,9.77
2019-05-05T16:40:44.445Z,7.80
2019-05-05T16:43:14.125Z,10.33
2019-05-05T16:45:44.461Z,13.77
2019-05-05T16:48:13.157Z,12.70
2019-05-05T16:50:43.912Z,9.10
2019-05-05T16:53:14.076Z,12.97
2019-05-05T16:55:44.922Z,11.63
2019-05-05T16:58:13.956Z,11.43
2019-05-05T17:00:44.122Z,13.10
2019-05-05T17:03:13.467Z,16.50
2019-05-05T17:05:44.152Z,13.77
2019-05-05T17:08:13.948Z,12.80
2019-05-05T17:10:43.557Z,7.90
2019-05-05T17:13:15.397Z,12.03
2019-05-05T17:15:53.688Z,10.00
2019-05-05T17:18:38.875Z,7.63
2019-05-05T17:21:13.426Z,12.00
2019-05-05T17:23:43.446Z,11.77
2019-05-05T17:26:14.135Z,10.03
2019-05-05T17:28:44.234Z,9.80
2019-05-05T17:31:12.900Z,17.70
2019-05-05T17:33:41.405Z,10.57
2019-05-05T17:36:09.833Z,14.43
2019-05-05T17:38:38.271Z,10.73
2019-05-05T17:41:14.175Z,12.63
2019-05-05T17:43:58.895Z,12.10
2019-05-05T17:46:28.950Z,13.77
2019-05-05T17:49:15.115Z,15.60
2019-05-05T17:51:54.454Z,6.57
2019-05-05T17:54:33.934Z,8.70
2019-05-05T17:57:03.560Z,10.60
2019-05-05T17:59:33.741Z,9.60
2019-05-05T18:02:04.793Z,11.50
2019-05-05T18:04:33.798Z,10.67
2019-05-05T18:07:09.899Z,11.30
2019-05-05T18:09:58.275Z,17.97
2019-05-05T18:12:28.334Z,13.30
2019-05-05T18:15:01.333Z,15.17
2019-05-05T18:17:29.810Z,11.33
2019-05-05T18:19:58.231Z,13.43
2019-05-05T18:22:26.673Z,12.30
2019-05-05T18:24:55.096Z,13.80
2019-05-05T18:27:23.764Z,17.17
2019-05-05T18:29:54.228Z,12.20
2019-05-05T18:32:23.553Z,12.87
2019-05-05T18:34:54.356Z,13.43
2019-05-05T18:37:24.252Z,12.37
2019-05-05T18:39:54.457Z,12.77
2019-05-05T18:42:24.643Z,7.87
2019-05-05T18:44:55.018Z,9.57
2019-05-05T18:47:25.048Z,16.17
2019-05-05T18:49:54.057Z,14.37
2019-05-05T18:52:24.583Z,10.63
2019-05-05T18:54:54.502Z,15.37
2019-05-05T18:57:24.704Z,13.53
2019-05-05T18:59:54.257Z,13.87
2019-05-05T19:02:24.716Z,15.67
2019-05-05T19:04:54.849Z,16.00
2019-05-05T19:07:24.907Z,12.60
2019-05-05T19:09:56.354Z,13.97
2019-05-05T19:12:24.331Z,14.80
2019-05-05T19:14:54.915Z,14.67
2019-05-05T19:17:23.633Z,16.97
2019-05-05T19:19:54.947Z,14.27
2019-05-05T19:22:23.704Z,11.37
2019-05-05T19:24:52.152Z,11.20
2019-05-05T19:27:20.577Z,12.13
2019-05-05T19:29:49.015Z,14.40
2019-05-05T19:32:17.891Z,11.17
2019-05-05T19:34:46.328Z,13.93
2019-05-05T19:37:16.382Z,11.63
2019-05-05T19:39:44.790Z,24.33
2019-05-05T19:42:14.405Z,12.10
2019-05-05T19:44:43.812Z,11.10
2019-05-05T19:47:17.151Z,16.87
2019-05-05T19:49:47.202Z,12.10
2019-05-05T19:52:15.677Z,14.50
2019-05-05T19:54:47.234Z,16.27
2019-05-05T19:57:14.470Z,12.97
2019-05-05T19:59:44.747Z,16.37
2019-05-05T20:02:13.491Z,10.20
2019-05-05T20:04:44.358Z,11.80
2019-05-05T20:07:13.946Z,17.83
2019-05-05T20:09:43.596Z,11.57
2019-05-05T20:12:12.107Z,10.23
2019-05-05T20:14:40.568Z,14.37
2019-05-05T20:17:10.593Z,11.17
2019-05-05T20:19:40.654Z,10.23
2019-05-05T20:22:09.151Z,12.77
2019-05-05T20:24:39.621Z,13.20
2019-05-05T20:27:08.185Z,14.43
2019-05-05T20:29:37.596Z,14.83
2019-05-05T20:32:06.352Z,15.37
2019-05-05T20:34:36.421Z,13.37
2019-05-05T20:37:09.357Z,15.20
2019-05-05T20:39:38.423Z,14.50
2019-05-05T20:42:08.500Z,13.77
2019-05-05T20:44:37.762Z,12.67
2019-05-05T20:47:07.188Z,13.83
2019-05-05T20:49:36.769Z,11.83
2019-05-05T20:52:06.334Z,8.93
2019-05-05T20:54:34.878Z,12.47
2019-05-05T20:57:04.398Z,7.10
2019-05-05T20:59:34.381Z,9.73
2019-05-05T21:02:04.711Z,9.97
2019-05-05T21:04:34.677Z,16.17
2019-05-05T21:07:04.587Z,10.23
2019-05-05T21:09:41.931Z,14.17
2019-05-05T21:12:11.355Z,14.13
2019-05-05T21:14:40.843Z,14.53
2019-05-05T21:17:10.117Z,13.10
2019-05-05T21:19:39.780Z,13.23
2019-05-05T21:22:33.967Z,15.83
2019-05-05T21:25:04.979Z,9.80
2019-05-05T21:27:35.103Z,11.13
2019-05-05T21:30:05.546Z,12.63
2019-05-05T21:32:34.120Z,12.57
2019-05-05T21:35:02.743Z,13.20
2019-05-05T21:37:31.226Z,9.23
2019-05-05T21:39:59.641Z,12.43
2019-05-05T21:42:28.098Z,7.10
2019-05-05T21:44:56.495Z,13.20
2019-05-05T21:47:24.923Z,11.43
2019-05-05T21:49:54.257Z,11.00
2019-05-05T21:52:40.662Z,10.20
2019-05-05T21:55:27.430Z,12.10
2019-05-05T21:58:09.382Z,9.40
2019-05-05T22:00:51.266Z,12.63
2019-05-05T22:03:36.985Z,18.93
2019-05-05T22:06:05.696Z,9.73
2019-05-05T22:08:36.044Z,10.60
2019-05-05T22:11:05.328Z,11.67
2019-05-05T22:13:36.175Z,10.97
2019-05-05T22:16:04.273Z,11.83
2019-05-05T22:18:32.677Z,9.17
2019-05-05T22:21:04.436Z,12.40
2019-05-05T22:23:34.040Z,8.13
2019-05-05T22:26:04.094Z,13.67
2019-05-05T22:28:34.060Z,12.67
2019-05-05T22:31:04.674Z,9.50
2019-05-05T22:33:35.189Z,15.03
2019-05-05T22:36:04.462Z,11.53
2019-05-05T22:38:34.074Z,12.77
2019-05-05T22:41:02.529Z,13.87
2019-05-05T22:43:31.514Z,17.07
2019-05-05T22:45:59.934Z,11.27
2019-05-05T22:48:28.356Z,11.07
2019-05-05T22:50:56.798Z,12.87
2019-05-05T22:53:25.195Z,14.37
2019-05-05T22:55:53.662Z,13.53
2019-05-05T22:58:24.042Z,10.80
2019-05-05T23:00:54.709Z,12.90
2019-05-05T23:03:27.321Z,12.73
2019-05-05T23:05:57.374Z,12.87
2019-05-05T23:08:25.785Z,24.53
2019-05-05T23:10:54.497Z,9.23
2019-05-05T23:13:23.210Z,12.63
2019-05-05T23:15:54.459Z,14.27
2019-05-05T23:18:25.673Z,14.97
2019-05-05T23:21:01.907Z,11.27
2019-05-05T23:23:43.968Z,12.97
2019-05-05T23:26:14.053Z,9.20
2019-05-05T23:28:44.375Z,14.90
2019-05-05T23:31:15.959Z,23.60
2019-05-05T23:33:43.946Z,18.67
2019-05-05T23:36:14.683Z,8.97
2019-05-05T23:38:44.847Z,11.97
2019-05-05T23:41:14.638Z,19.67
2019-05-05T23:43:45.106Z,10.47
2019-05-05T23:46:14.418Z,12.20
2019-05-05T23:48:42.936Z,7.87
2019-05-05T23:51:13.792Z,10.27
2019-05-05T23:53:41.598Z,12.13
2019-05-05T23:56:10.032Z,12.03
2019-05-05T23:58:38.457Z,8.17
